Time;durP1;ratioP1;P1;durP2;ratioP2;P2;SDS_P1;SDS_P2;PMS_P1;PMS_P2;Temp;Humidity;BMP_temperature;BMP_pressure;BME280_temperature;BME280_humidity;BME280_pressure;Samples;Min_cycle;Max_cycle;Signal;HPM_P1;HPM_P2
2023/10/15 00:01:50;;;;;;;13.48;5.07;;;;;;;;;;4915310;29;20480;-59
2023/10/15 00:04:16;;;;;;;14.95;4.65;;;;;;;;;;4932621;29;20118;-59
2023/10/15 00:06:41;;;;;;;13.55;5.00;;;;;;;;;;4932912;29;20114;-58
2023/10/15 00:09:07;;;;;;;18.35;5.00;;;;;;;;;;4932243;29;20401;-59
2023/10/15 00:11:33;;;;;;;12.88;5.13;;;;;;;;;;4931193;29;20313;-59
2023/10/15 00:13:58;;;;;;;15.25;5.47;;;;;;;;;;4933701;29;20038;-58
2023/10/15 00:16:24;;;;;;;13.55;5.97;;;;;;;;;;4932016;29;20389;-61
2023/10/15 00:18:50;;;;;;;12.20;4.80;;;;;;;;;;4935784;29;20067;-59
2023/10/15 00:21:15;;;;;;;16.67;5.20;;;;;;;;;;4917930;29;20056;-60
2023/10/15 00:23:42;;;;;;;13.48;4.50;;;;;;;;;;4936267;29;20067;-59
2023/10/15 00:26:07;;;;;;;11.40;4.78;;;;;;;;;;4937382;29;20050;-60
2023/10/15 00:28:33;;;;;;;14.20;5.10;;;;;;;;;;4932657;29;20040;-60
2023/10/15 00:31:00;;;;;;;21.30;5.85;;;;;;;;;;4917599;29;20510;-59
2023/10/15 00:33:26;;;;;;;13.43;4.88;;;;;;;;;;4939902;29;20378;-59
2023/10/15 00:35:55;;;;;;;17.35;5.20;;;;;;;;;;4934299;29;20106;-59
2023/10/15 00:38:20;;;;;;;17.15;5.22;;;;;;;;;;4935064;29;20035;-59
2023/10/15 00:40:51;;;;;;;20.27;5.38;;;;;;;;;;4933127;29;20031;-61
2023/10/15 00:43:18;;;;;;;19.90;5.22;;;;;;;;;;4934418;29;20129;-61
2023/10/15 00:45:45;;;;;;;14.27;4.63;;;;;;;;;;4917249;29;20031;-58
2023/10/15 00:48:35;;;;;;;16.98;5.32;;;;;;;;;;4933228;29;20058;-60
2023/10/15 00:51:10;;;;;;;17.33;5.40;;;;;;;;;;4935311;29;20043;-59
2023/10/15 00:53:42;;;;;;;19.83;6.60;;;;;;;;;;4916569;29;20078;-59
2023/10/15 00:56:10;;;;;;;17.40;6.13;;;;;;;;;;4935441;29;20114;-60
2023/10/15 01:01:53;;;;;;;17.80;6.25;;;;;;;;;;4935338;29;20659;-59
2023/10/15 01:03:59;;;;;;;16.85;6.22;;;;;;;;;;4930176;29;20099;-59
2023/10/15 01:06:32;;;;;;;13.52;6.10;;;;;;;;;;4934812;29;20043;-59
2023/10/15 01:08:59;;;;;;;13.90;6.13;;;;;;;;;;4933786;29;20031;-58
2023/10/15 01:11:31;;;;;;;17.55;6.22;;;;;;;;;;4933113;29;20056;-58
2023/10/15 01:13:57;;;;;;;11.30;6.05;;;;;;;;;;4936650;29;20137;-59
2023/10/15 01:16:23;;;;;;;15.15;7.38;;;;;;;;;;4933197;29;20118;-59
2023/10/15 01:19:06;;;;;;;20.10;7.07;;;;;;;;;;4934427;29;20123;-59
2023/10/15 01:21:32;;;;;;;13.88;6.93;;;;;;;;;;4934464;29;20035;-57
2023/10/15 01:24:04;;;;;;;15.95;7.93;;;;;;;;;;4934995;29;20035;-60
2023/10/15 01:26:36;;;;;;;19.77;7.55;;;;;;;;;;4934098;29;20070;-58
2023/10/15 01:29:05;;;;;;;19.10;9.40;;;;;;;;;;4933715;29;20032;-58
2023/10/15 01:31:39;;;;;;;16.15;8.55;;;;;;;;;;4932861;29;20063;-60
2023/10/15 01:34:09;;;;;;;12.80;8.18;;;;;;;;;;4922670;29;20404;-59
2023/10/15 01:36:38;;;;;;;15.77;8.07;;;;;;;;;;4934026;29;20102;-64
2023/10/15 01:39:10;;;;;;;15.80;7.60;;;;;;;;;;4934229;29;20048;-58
2023/10/15 01:41:39;;;;;;;13.73;7.03;;;;;;;;;;4931681;29;20418;-59
2023/10/15 01:44:06;;;;;;;17.05;7.80;;;;;;;;;;4934453;29;20035;-58
2023/10/15 01:49:16;;;;;;;13.82;7.32;;;;;;;;;;4935547;29;20082;-59
2023/10/15 01:51:41;;;;;;;15.55;7.70;;;;;;;;;;4932331;29;20461;-58
2023/10/15 01:54:09;;;;;;;16.23;7.90;;;;;;;;;;4928997;29;20047;-59
2023/10/15 01:56:36;;;;;;;11.40;7.13;;;;;;;;;;4941739;29;20036;-58
2023/10/15 01:59:07;;;;;;;19.02;7.20;;;;;;;;;;4917754;29;20035;-58
2023/10/15 02:01:37;;;;;;;13.75;6.97;;;;;;;;;;4934501;29;20055;-60
2023/10/15 02:04:06;;;;;;;16.27;6.25;;;;;;;;;;4934027;29;20035;-60
2023/10/15 02:06:42;;;;;;;14.63;6.68;;;;;;;;;;4932153;29;20031;-59
2023/10/15 02:09:11;;;;;;;11.75;6.20;;;;;;;;;;4917336;29;20500;-58
2023/10/15 02:11:43;;;;;;;11.98;5.82;;;;;;;;;;4900994;29;20063;-59
2023/10/15 02:14:09;;;;;;;10.73;6.32;;;;;;;;;;4933340;29;20469;-59
2023/10/15 02:16:37;;;;;;;12.73;6.05;;;;;;;;;;4917204;29;20127;-59
2023/10/15 02:19:07;;;;;;;14.60;6.63;;;;;;;;;;4932483;29;20036;-59
2023/10/15 02:21:33;;;;;;;14.75;6.10;;;;;;;;;;4931923;29;20129;-59
2023/10/15 02:24:08;;;;;;;15.60;5.60;;;;;;;;;;4933301;29;20413;-58
2023/10/15 02:26:35;;;;;;;13.90;5.88;;;;;;;;;;4931310;29;20107;-59
2023/10/15 02:29:27;;;;;;;13.70;5.43;;;;;;;;;;4933967;29;20062;-59
2023/10/15 02:31:46;;;;;;;14.13;5.63;;;;;;;;;;4933319;29;20124;-58
2023/10/15 02:34:14;;;;;;;12.10;5.40;;;;;;;;;;4933653;29;20482;-59
2023/10/15 02:36:42;;;;;;;10.82;5.50;;;;;;;;;;4931892;29;20035;-56
2023/10/15 02:39:08;;;;;;;11.63;5.95;;;;;;;;;;4931181;29;20421;-58
2023/10/15 02:41:46;;;;;;;11.93;5.78;;;;;;;;;;4930730;29;20094;-61
2023/10/15 02:44:17;;;;;;;12.07;5.75;;;;;;;;;;4932976;29;20039;-61
2023/10/15 02:46:49;;;;;;;8.77;4.80;;;;;;;;;;4930386;29;20035;-61
2023/10/15 02:49:15;;;;;;;10.75;4.97;;;;;;;;;;4932420;29;20054;-61
2023/10/15 02:51:48;;;;;;;7.63;4.00;;;;;;;;;;4931581;29;20653;-61
2023/10/15 02:54:26;;;;;;;12.75;4.50;;;;;;;;;;4914697;29;20119;-61
2023/10/15 02:56:56;;;;;;;11.30;4.40;;;;;;;;;;4926158;29;20035;-61
2023/10/15 02:59:23;;;;;;;9.50;4.65;;;;;;;;;;4933484;29;20072;-62
2023/10/15 03:01:54;;;;;;;10.18;4.80;;;;;;;;;;4934307;29;20031;-61
2023/10/15 03:04:32;;;;;;;14.25;5.30;;;;;;;;;;4937157;29;20032;-62
2023/10/15 03:09:48;;;;;;;11.60;4.80;;;;;;;;;;4927830;29;20059;-60
2023/10/15 03:12:16;;;;;;;14.82;5.20;;;;;;;;;;4933021;29;20055;-60
2023/10/15 03:14:41;;;;;;;14.20;5.00;;;;;;;;;;4931081;29;20032;-60
2023/10/15 03:17:13;;;;;;;14.77;4.95;;;;;;;;;;4916412;29;20062;-60
2023/10/15 03:19:41;;;;;;;10.18;4.28;;;;;;;;;;4936003;29;20567;-60
2023/10/15 03:22:11;;;;;;;13.00;3.95;;;;;;;;;;4916129;29;20063;-60
2023/10/15 03:24:37;;;;;;;9.95;4.18;;;;;;;;;;4930867;29;20405;-59
2023/10/15 03:27:02;;;;;;;12.80;4.45;;;;;;;;;;4933439;29;20118;-60
2023/10/15 03:29:29;;;;;;;11.85;4.97;;;;;;;;;;4931994;29;20179;-59
2023/10/15 03:32:02;;;;;;;9.57;4.25;;;;;;;;;;4934369;29;20032;-60
2023/10/15 03:34:27;;;;;;;10.00;4.90;;;;;;;;;;4929867;29;20064;-61
2023/10/15 03:36:58;;;;;;;17.13;4.50;;;;;;;;;;4931864;29;20412;-58
2023/10/15 03:39:25;;;;;;;13.45;4.50;;;;;;;;;;4932745;29;20083;-62
2023/10/15 03:41:59;;;;;;;11.85;4.68;;;;;;;;;;4931819;29;20043;-61
2023/10/15 03:44:32;;;;;;;9.93;4.43;;;;;;;;;;4929900;29;20035;-61
2023/10/15 03:47:04;;;;;;;9.73;4.07;;;;;;;;;;4932736;29;20043;-59
2023/10/15 03:49:30;;;;;;;12.70;4.53;;;;;;;;;;4934273;29;20042;-59
2023/10/15 03:51:56;;;;;;;10.40;5.22;;;;;;;;;;4936618;29;20043;-59
2023/10/15 03:54:22;;;;;;;12.63;5.15;;;;;;;;;;4945697;29;20039;-58
2023/10/15 03:56:49;;;;;;;9.85;5.43;;;;;;;;;;4939012;29;20036;-59
2023/10/15 03:59:14;;;;;;;14.40;5.78;;;;;;;;;;4936349;29;20481;-61
2023/10/15 04:01:46;;;;;;;12.15;5.95;;;;;;;;;;4939062;29;20046;-58
2023/10/15 04:04:15;;;;;;;9.93;5.70;;;;;;;;;;4935211;29;20035;-58
2023/10/15 04:06:41;;;;;;;14.02;6.30;;;;;;;;;;4935702;29;20115;-58
2023/10/15 04:11:42;;;;;;;10.73;6.43;;;;;;;;;;4935343;29;20059;-60
2023/10/15 04:16:46;;;;;;;10.52;6.18;;;;;;;;;;4934699;29;20601;-59
2023/10/15 04:19:17;;;;;;;12.18;6.40;;;;;;;;;;4937655;29;20032;-59
2023/10/15 04:21:44;;;;;;;10.88;6.55;;;;;;;;;;4918885;29;20090;-59
2023/10/15 04:24:10;;;;;;;11.55;6.55;;;;;;;;;;4935754;29;20118;-59
2023/10/15 04:26:36;;;;;;;14.02;6.60;;;;;;;;;;4916797;29;20449;-59
2023/10/15 04:29:16;;;;;;;14.70;6.88;;;;;;;;;;4936288;29;20520;-60
2023/10/15 04:31:45;;;;;;;14.57;7.13;;;;;;;;;;4932851;29;20473;-59
2023/10/15 04:34:16;;;;;;;17.70;7.28;;;;;;;;;;4945046;29;20362;-59
2023/10/15 04:36:43;;;;;;;12.95;7.50;;;;;;;;;;4944008;29;20058;-60
2023/10/15 04:39:12;;;;;;;14.90;7.30;;;;;;;;;;4935736;29;20074;-59
2023/10/15 04:41:39;;;;;;;12.55;7.22;;;;;;;;;;4933062;29;20046;-60
2023/10/15 04:44:07;;;;;;;12.77;7.45;;;;;;;;;;4938190;29;20058;-60
2023/10/15 04:46:40;;;;;;;12.73;7.10;;;;;;;;;;4933661;29;20073;-59
2023/10/15 04:49:07;;;;;;;13.75;6.88;;;;;;;;;;4937198;29;20074;-59
2023/10/15 04:51:42;;;;;;;15.05;6.93;;;;;;;;;;4935006;29;20473;-60
2023/10/15 04:54:08;;;;;;;19.13;6.95;;;;;;;;;;4933534;29;20145;-59
2023/10/15 04:56:36;;;;;;;14.43;6.45;;;;;;;;;;4940247;29;20461;-60
2023/10/15 04:59:02;;;;;;;13.20;6.40;;;;;;;;;;4935332;29;20038;-59
2023/10/15 05:01:28;;;;;;;11.25;6.30;;;;;;;;;;4933024;29;20488;-62
2023/10/15 05:03:53;;;;;;;13.38;6.45;;;;;;;;;;4934218;29;20039;-58
2023/10/15 05:06:21;;;;;;;13.68;6.47;;;;;;;;;;4935568;29;20430;-59
2023/10/15 05:08:47;;;;;;;14.60;6.95;;;;;;;;;;4935881;29;20031;-59
2023/10/15 05:11:13;;;;;;;10.10;6.25;;;;;;;;;;4942115;29;20063;-60
2023/10/15 05:13:42;;;;;;;15.18;6.38;;;;;;;;;;4917902;29;20031;-58
2023/10/15 05:16:07;;;;;;;13.80;6.70;;;;;;;;;;4936360;29;20031;-60
2023/10/15 05:18:33;;;;;;;13.27;6.90;;;;;;;;;;4935217;29;20467;-61
2023/10/15 05:21:00;;;;;;;13.82;6.55;;;;;;;;;;4935394;29;21010;-59
2023/10/15 05:23:25;;;;;;;9.98;6.47;;;;;;;;;;4934667;29;20044;-58
2023/10/15 05:25:52;;;;;;;13.05;6.72;;;;;;;;;;4934033;29;20607;-58
2023/10/15 05:28:18;;;;;;;10.57;5.85;;;;;;;;;;4934838;29;20047;-60
2023/10/15 05:30:44;;;;;;;11.93;6.40;;;;;;;;;;4931922;29;20112;-60
2023/10/15 05:33:09;;;;;;;14.68;6.38;;;;;;;;;;4945720;29;20117;-58
2023/10/15 05:35:37;;;;;;;10.27;5.78;;;;;;;;;;4934185;29;20035;-61
2023/10/15 05:38:09;;;;;;;9.43;4.72;;;;;;;;;;4935056;29;20511;-57
2023/10/15 05:40:36;;;;;;;10.48;4.63;;;;;;;;;;4933559;29;20083;-61
2023/10/15 05:43:01;;;;;;;8.48;4.30;;;;;;;;;;4934197;29;20047;-58
2023/10/15 05:45:27;;;;;;;9.30;4.45;;;;;;;;;;4935977;29;20039;-59
2023/10/15 05:47:52;;;;;;;9.02;4.38;;;;;;;;;;4939800;29;20023;-61
2023/10/15 05:50:18;;;;;;;11.23;4.60;;;;;;;;;;4936068;29;20027;-59
2023/10/15 05:52:43;;;;;;;6.90;3.70;;;;;;;;;;4934450;29;20081;-59
2023/10/15 05:55:11;;;;;;;6.65;3.80;;;;;;;;;;4934327;29;20038;-59
2023/10/15 05:57:37;;;;;;;7.00;3.55;;;;;;;;;;4916617;29;20370;-62
2023/10/15 06:00:17;;;;;;;11.18;3.97;;;;;;;;;;4931377;29;20465;-61
2023/10/15 06:02:50;;;;;;;4.63;2.85;;;;;;;;;;4903635;29;20035;-59
2023/10/15 06:05:16;;;;;;;8.23;3.97;;;;;;;;;;4934318;29;20099;-60
2023/10/15 06:07:45;;;;;;;8.57;4.32;;;;;;;;;;4934094;29;20032;-59
2023/10/15 06:10:11;;;;;;;7.55;4.25;;;;;;;;;;4935467;29;20039;-59
2023/10/15 06:12:41;;;;;;;7.85;3.70;;;;;;;;;;4933048;29;20082;-61
2023/10/15 06:15:08;;;;;;;8.52;3.97;;;;;;;;;;4934327;29;20039;-60
2023/10/15 06:17:33;;;;;;;8.73;4.20;;;;;;;;;;4912297;29;20075;-62
2023/10/15 06:20:12;;;;;;;7.97;4.10;;;;;;;;;;4934062;29;20036;-60
2023/10/15 06:22:41;;;;;;;7.50;3.80;;;;;;;;;;4916240;29;20179;-61
2023/10/15 06:25:08;;;;;;;9.95;4.32;;;;;;;;;;4933354;29;20027;-60
2023/10/15 06:27:35;;;;;;;7.10;3.67;;;;;;;;;;4934266;29;20099;-61
2023/10/15 06:30:05;;;;;;;10.70;4.43;;;;;;;;;;4931471;29;20067;-61
2023/10/15 06:32:31;;;;;;;8.60;4.10;;;;;;;;;;4931875;29;20059;-60
2023/10/15 06:34:56;;;;;;;7.00;3.58;;;;;;;;;;4909817;29;20040;-60
2023/10/15 06:37:22;;;;;;;7.70;4.10;;;;;;;;;;4932677;29;20028;-61
2023/10/15 06:39:47;;;;;;;8.48;3.58;;;;;;;;;;4934175;29;20035;-61
2023/10/15 06:42:12;;;;;;;5.80;3.42;;;;;;;;;;4935101;29;20425;-61
2023/10/15 06:44:38;;;;;;;5.82;3.72;;;;;;;;;;4933557;29;20023;-62
2023/10/15 06:47:03;;;;;;;6.90;3.60;;;;;;;;;;4934813;29;20040;-61
2023/10/15 06:49:28;;;;;;;5.50;3.67;;;;;;;;;;4935349;29;20034;-61
2023/10/15 06:51:54;;;;;;;5.07;3.30;;;;;;;;;;4934135;29;20217;-61
2023/10/15 06:54:19;;;;;;;5.95;3.33;;;;;;;;;;4934842;29;20038;-61
2023/10/15 06:56:44;;;;;;;3.80;2.83;;;;;;;;;;4933801;29;20054;-61
2023/10/15 06:59:11;;;;;;;4.43;3.10;;;;;;;;;;4917519;29;20047;-61
2023/10/15 07:01:38;;;;;;;4.85;3.10;;;;;;;;;;4936081;29;20027;-64
2023/10/15 07:04:07;;;;;;;5.80;2.88;;;;;;;;;;4953911;29;20507;-62
2023/10/15 07:06:33;;;;;;;7.82;3.00;;;;;;;;;;4954056;29;20027;-61
2023/10/15 07:08:59;;;;;;;5.65;2.67;;;;;;;;;;4953196;29;20104;-61
2023/10/15 07:11:26;;;;;;;5.03;2.70;;;;;;;;;;4953889;29;20083;-60
2023/10/15 07:13:52;;;;;;;4.70;2.40;;;;;;;;;;4948703;29;20039;-61
2023/10/15 07:16:19;;;;;;;4.30;2.42;;;;;;;;;;4934795;29;20102;-60
2023/10/15 07:18:45;;;;;;;4.07;2.10;;;;;;;;;;4933577;29;20449;-61
2023/10/15 07:21:11;;;;;;;4.75;2.35;;;;;;;;;;4934159;29;20115;-61
2023/10/15 07:23:37;;;;;;;3.60;2.10;;;;;;;;;;4916920;29;20071;-62
2023/10/15 07:26:03;;;;;;;5.07;2.75;;;;;;;;;;4933916;29;20031;-60
2023/10/15 07:28:29;;;;;;;3.90;2.55;;;;;;;;;;4934426;29;20483;-59
2023/10/15 07:30:55;;;;;;;5.00;2.55;;;;;;;;;;4930410;29;20421;-61
2023/10/15 07:33:21;;;;;;;6.10;2.42;;;;;;;;;;4915664;29;20040;-59
2023/10/15 07:35:48;;;;;;;4.43;2.45;;;;;;;;;;4927974;29;20042;-58
2023/10/15 07:38:13;;;;;;;4.95;2.28;;;;;;;;;;4933164;29;20458;-58
2023/10/15 07:40:40;;;;;;;3.83;2.40;;;;;;;;;;4933898;29;20031;-61
2023/10/15 07:43:08;;;;;;;3.58;2.38;;;;;;;;;;4934314;29;20386;-58
2023/10/15 07:45:34;;;;;;;5.55;1.98;;;;;;;;;;4935381;29;20036;-55
2023/10/15 07:48:02;;;;;;;5.85;2.20;;;;;;;;;;4953036;29;20084;-57
2023/10/15 07:50:29;;;;;;;3.70;2.22;;;;;;;;;;4953609;29;20041;-57
2023/10/15 07:52:55;;;;;;;3.85;2.10;;;;;;;;;;4937345;29;20429;-57
2023/10/15 07:55:24;;;;;;;4.18;2.17;;;;;;;;;;4933119;29;20027;-54
2023/10/15 07:57:51;;;;;;;3.75;2.00;;;;;;;;;;4933299;29;20034;-56
2023/10/15 08:00:22;;;;;;;3.35;1.80;;;;;;;;;;4933966;29;20405;-55
2023/10/15 08:02:57;;;;;;;4.28;1.88;;;;;;;;;;4933141;29;20084;-58
2023/10/15 08:05:24;;;;;;;2.88;1.48;;;;;;;;;;4934250;29;20111;-56
2023/10/15 08:07:51;;;;;;;3.78;1.88;;;;;;;;;;4916278;29;20038;-56
2023/10/15 08:10:17;;;;;;;3.83;1.80;;;;;;;;;;4934903;29;20520;-60
2023/10/15 08:12:44;;;;;;;4.28;2.20;;;;;;;;;;4931784;29;20048;-57
2023/10/15 08:15:10;;;;;;;4.82;2.22;;;;;;;;;;4944557;29;20039;-58
2023/10/15 08:17:36;;;;;;;4.95;2.35;;;;;;;;;;4933811;29;20457;-58
2023/10/15 08:20:04;;;;;;;3.22;2.10;;;;;;;;;;4933332;29;20059;-58
2023/10/15 08:22:29;;;;;;;3.78;2.30;;;;;;;;;;4916716;29;20035;-57
2023/10/15 08:24:55;;;;;;;3.65;2.30;;;;;;;;;;4933163;29;20036;-59
2023/10/15 08:27:21;;;;;;;2.90;1.73;;;;;;;;;;4934097;29;20040;-58
2023/10/15 08:29:49;;;;;;;1.55;1.20;;;;;;;;;;4914914;29;20040;-59
2023/10/15 08:32:18;;;;;;;3.25;1.50;;;;;;;;;;4933992;29;20050;-58
2023/10/15 08:34:44;;;;;;;2.95;1.40;;;;;;;;;;4934786;29;20466;-61
2023/10/15 08:37:10;;;;;;;2.55;1.30;;;;;;;;;;4936681;29;20042;-58
2023/10/15 08:39:38;;;;;;;1.70;1.10;;;;;;;;;;4937400;29;20389;-58
2023/10/15 08:42:18;;;;;;;2.55;1.23;;;;;;;;;;4936157;29;20123;-58
2023/10/15 08:44:51;;;;;;;2.58;1.00;;;;;;;;;;4921814;29;20032;-61
2023/10/15 08:47:17;;;;;;;1.75;1.10;;;;;;;;;;4938989;29;20031;-59
2023/10/15 08:49:51;;;;;;;3.88;1.15;;;;;;;;;;4937484;29;20047;-60
2023/10/15 08:52:17;;;;;;;1.70;1.25;;;;;;;;;;4932359;29;20052;-59
2023/10/15 08:54:45;;;;;;;2.92;1.20;;;;;;;;;;4918266;29;20040;-61
2023/10/15 08:57:11;;;;;;;3.08;1.20;;;;;;;;;;4930208;29;20037;-58
2023/10/15 08:59:37;;;;;;;2.20;1.20;;;;;;;;;;4920044;29;20498;-59
2023/10/15 09:02:08;;;;;;;3.85;1.23;;;;;;;;;;4936300;29;20024;-57
2023/10/15 09:04:33;;;;;;;;;;;;;;;;;;4920269;29;20043;-61
2023/10/15 09:07:03;;;;;;;2.25;1.52;;;;;;;;;;4934558;29;19910;-59
2023/10/15 09:09:29;;;;;;;4.15;1.60;;;;;;;;;;4936649;29;20051;-58
2023/10/15 09:11:55;;;;;;;1.90;1.20;;;;;;;;;;4935683;29;20108;-58
2023/10/15 09:14:40;;;;;;;3.17;1.42;;;;;;;;;;4936215;29;20035;-58
2023/10/15 09:17:10;;;;;;;2.72;1.60;;;;;;;;;;4935948;29;20322;-58
2023/10/15 09:19:39;;;;;;;5.40;1.50;;;;;;;;;;4935619;29;20036;-61
2023/10/15 09:22:06;;;;;;;3.08;1.50;;;;;;;;;;4935733;29;20091;-57
2023/10/15 09:24:32;;;;;;;2.63;1.48;;;;;;;;;;4936438;29;20485;-57
2023/10/15 09:27:01;;;;;;;3.33;1.83;;;;;;;;;;4935372;29;20035;-59
2023/10/15 09:29:30;;;;;;;2.22;1.33;;;;;;;;;;4918874;29;20059;-57
2023/10/15 09:31:56;;;;;;;2.72;1.40;;;;;;;;;;4918312;29;20042;-59
2023/10/15 09:34:23;;;;;;;3.42;1.50;;;;;;;;;;4936150;29;20047;-59
2023/10/15 09:36:49;;;;;;;3.88;1.42;;;;;;;;;;4935381;29;20080;-61
2023/10/15 09:39:15;;;;;;;3.13;1.55;;;;;;;;;;4935740;29;20039;-59
2023/10/15 09:41:44;;;;;;;3.45;1.50;;;;;;;;;;4935742;29;20442;-60
2023/10/15 09:44:15;;;;;;;2.20;1.40;;;;;;;;;;4918545;29;20397;-58
2023/10/15 09:46:44;;;;;;;1.95;1.30;;;;;;;;;;4935777;29;20039;-58
2023/10/15 09:49:12;;;;;;;2.75;1.48;;;;;;;;;;4918419;29;20039;-58
2023/10/15 09:51:38;;;;;;;1.75;1.20;;;;;;;;;;4918383;29;20036;-57
2023/10/15 09:54:06;;;;;;;2.60;1.20;;;;;;;;;;4918024;29;20152;-57
2023/10/15 09:56:34;;;;;;;3.08;1.02;;;;;;;;;;4935680;29;20047;-57
2023/10/15 09:59:02;;;;;;;1.10;1.00;;;;;;;;;;4918118;29;20035;-56
2023/10/15 10:01:29;;;;;;;1.85;1.30;;;;;;;;;;4935569;29;20366;-58
2023/10/15 10:03:59;;;;;;;1.27;1.00;;;;;;;;;;4934736;29;20035;-59
2023/10/15 10:06:33;;;;;;;1.33;0.95;;;;;;;;;;4936075;29;20042;-58
2023/10/15 10:09:30;;;;;;;2.85;1.17;;;;;;;;;;4934583;29;20031;-59
2023/10/15 10:12:17;;;;;;;2.08;0.82;;;;;;;;;;4917687;29;20100;-57
2023/10/15 10:15:28;;;;;;;2.85;1.27;;;;;;;;;;4935849;29;20035;-62
2023/10/15 10:17:54;;;;;;;2.92;1.50;;;;;;;;;;4934756;29;20083;-57
2023/10/15 10:20:22;;;;;;;1.58;1.10;;;;;;;;;;4918447;29;20434;-58
2023/10/15 10:22:59;;;;;;;1.20;0.90;;;;;;;;;;4934844;29;20075;-61
2023/10/15 10:25:32;;;;;;;2.45;1.33;;;;;;;;;;4934942;29;20519;-58
2023/10/15 10:28:22;;;;;;;3.50;1.30;;;;;;;;;;4934582;29;20040;-59
2023/10/15 10:30:53;;;;;;;2.45;1.25;;;;;;;;;;4935089;29;20163;-61
2023/10/15 10:33:43;;;;;;;2.97;1.10;;;;;;;;;;4936904;29;20042;-59
2023/10/15 10:36:19;;;;;;;1.70;0.80;;;;;;;;;;4935271;29;20844;-58
2023/10/15 10:38:56;;;;;;;1.10;0.77;;;;;;;;;;4935234;29;20039;-57
2023/10/15 10:41:33;;;;;;;2.90;0.93;;;;;;;;;;4936056;29;20032;-59
2023/10/15 10:43:58;;;;;;;2.90;1.40;;;;;;;;;;4934674;29;20039;-56
2023/10/15 10:46:24;;;;;;;2.83;1.00;;;;;;;;;;4934961;29;20036;-59
2023/10/15 10:49:04;;;;;;;2.22;1.00;;;;;;;;;;4934275;29;20032;-60
2023/10/15 10:51:30;;;;;;;1.95;1.05;;;;;;;;;;4934198;29;20036;-59
2023/10/15 10:53:56;;;;;;;3.05;0.90;;;;;;;;;;4934071;29;20468;-58
2023/10/15 10:56:25;;;;;;;2.58;1.10;;;;;;;;;;4917456;29;20047;-59
2023/10/15 10:58:57;;;;;;;2.95;1.20;;;;;;;;;;4934116;29;20036;-62
2023/10/15 11:01:23;;;;;;;3.13;1.25;;;;;;;;;;4934902;29;20052;-58
2023/10/15 11:03:54;;;;;;;2.95;1.00;;;;;;;;;;4934787;29;20376;-61
2023/10/15 11:06:21;;;;;;;2.05;1.10;;;;;;;;;;4934299;29;20094;-59
2023/10/15 11:08:50;;;;;;;2.30;1.00;;;;;;;;;;4929509;29;20099;-58
2023/10/15 11:11:19;;;;;;;2.60;1.23;;;;;;;;;;4894953;29;20055;-56
2023/10/15 11:13:47;;;;;;;2.13;1.30;;;;;;;;;;4896922;29;20067;-58
2023/10/15 11:16:13;;;;;;;3.13;1.00;;;;;;;;;;4895722;29;20519;-60
2023/10/15 11:18:39;;;;;;;2.60;1.15;;;;;;;;;;4880008;29;20032;-59
2023/10/15 11:21:07;;;;;;;2.13;1.05;;;;;;;;;;4895881;29;20040;-59
2023/10/15 11:23:33;;;;;;;4.68;1.00;;;;;;;;;;4879886;29;20037;-57
2023/10/15 11:25:59;;;;;;;1.42;0.80;;;;;;;;;;4895828;29;20028;-59
2023/10/15 11:28:25;;;;;;;2.25;1.00;;;;;;;;;;4897242;29;20043;-59
2023/10/15 11:30:52;;;;;;;1.48;0.93;;;;;;;;;;4898571;29;20032;-61
2023/10/15 11:33:18;;;;;;;1.27;0.90;;;;;;;;;;4898324;29;20068;-58
2023/10/15 11:35:48;;;;;;;3.38;1.02;;;;;;;;;;4898433;29;20081;-58
2023/10/15 11:38:14;;;;;;;3.42;1.67;;;;;;;;;;4914840;29;20107;-60
2023/10/15 11:40:41;;;;;;;1.55;0.80;;;;;;;;;;4915393;29;20466;-59
2023/10/15 11:43:15;;;;;;;3.03;1.00;;;;;;;;;;4914016;29;20036;-58
2023/10/15 11:45:41;;;;;;;2.90;0.93;;;;;;;;;;4915165;29;20040;-61
2023/10/15 11:48:11;;;;;;;2.22;1.17;;;;;;;;;;4914048;29;20024;-59
2023/10/15 11:50:40;;;;;;;1.60;0.80;;;;;;;;;;4914720;29;20498;-59
2023/10/15 11:53:18;;;;;;;2.40;0.90;;;;;;;;;;4897578;29;20331;-59
2023/10/15 11:55:53;;;;;;;2.05;1.00;;;;;;;;;;4914747;29;20047;-58
2023/10/15 11:58:27;;;;;;;2.80;0.80;;;;;;;;;;4914820;29;20083;-59
2023/10/15 12:00:52;;;;;;;2.30;1.00;;;;;;;;;;4914885;29;20523;-62
2023/10/15 12:03:20;;;;;;;1.30;0.90;;;;;;;;;;4914427;29;20119;-59
2023/10/15 12:05:46;;;;;;;2.13;1.05;;;;;;;;;;4915404;29;20489;-58
2023/10/15 12:08:12;;;;;;;2.50;1.17;;;;;;;;;;4914683;29;20846;-59
2023/10/15 12:10:42;;;;;;;4.07;1.17;;;;;;;;;;4901125;29;20473;-59
2023/10/15 12:13:12;;;;;;;3.00;1.27;;;;;;;;;;4936061;29;20118;-59
2023/10/15 12:15:37;;;;;;;1.90;1.08;;;;;;;;;;4937697;29;20088;-57
2023/10/15 12:18:03;;;;;;;1.10;1.00;;;;;;;;;;4919361;29;20043;-60
2023/10/15 12:20:29;;;;;;;1.90;1.20;;;;;;;;;;4922226;29;20031;-59
2023/10/15 12:22:55;;;;;;;2.17;1.48;;;;;;;;;;4905330;29;20039;-61
2023/10/15 12:25:21;;;;;;;3.67;1.40;;;;;;;;;;4920979;29;20042;-59
2023/10/15 12:27:47;;;;;;;2.08;1.20;;;;;;;;;;4937944;29;20094;-59
2023/10/15 12:30:27;;;;;;;2.97;1.60;;;;;;;;;;4936761;29;20063;-59
2023/10/15 12:32:58;;;;;;;2.90;1.15;;;;;;;;;;4937151;29;20127;-58
2023/10/15 12:35:23;;;;;;;4.18;1.40;;;;;;;;;;4937268;29;20087;-58
2023/10/15 12:37:49;;;;;;;2.45;1.20;;;;;;;;;;4937149;29;20040;-58
2023/10/15 12:40:29;;;;;;;1.38;1.00;;;;;;;;;;4919107;29;20064;-60
2023/10/15 12:42:54;;;;;;;3.28;1.15;;;;;;;;;;4919704;29;20325;-61
2023/10/15 12:45:20;;;;;;;3.03;1.02;;;;;;;;;;4919592;29;20061;-57
2023/10/15 12:47:46;;;;;;;4.93;1.90;;;;;;;;;;4937128;29;20035;-59
2023/10/15 12:50:17;;;;;;;4.60;1.23;;;;;;;;;;4935529;29;20487;-59
2023/10/15 12:52:47;;;;;;;2.42;0.98;;;;;;;;;;4936866;29;20035;-59
2023/10/15 12:55:19;;;;;;;4.90;1.15;;;;;;;;;;4919322;29;20164;-58
2023/10/15 12:57:46;;;;;;;2.90;1.10;;;;;;;;;;4936726;29;20396;-58
2023/10/15 13:00:18;;;;;;;1.05;0.90;;;;;;;;;;4936133;29;20087;-58
2023/10/15 13:02:53;;;;;;;1.17;1.00;;;;;;;;;;4936973;29;20074;-60
2023/10/15 13:05:23;;;;;;;4.28;1.33;;;;;;;;;;4917200;29;20166;-59
2023/10/15 13:07:51;;;;;;;3.55;2.13;;;;;;;;;;4917945;29;20107;-60
2023/10/15 13:10:17;;;;;;;3.55;1.58;;;;;;;;;;4916749;29;20063;-59
2023/10/15 13:12:50;;;;;;;1.55;0.90;;;;;;;;;;4917370;29;20048;-58
2023/10/15 13:15:18;;;;;;;2.05;1.00;;;;;;;;;;4917063;29;20032;-58
2023/10/15 13:17:44;;;;;;;2.13;1.10;;;;;;;;;;4918961;29;20032;-59
2023/10/15 13:20:13;;;;;;;6.65;2.50;;;;;;;;;;4918425;29;20032;-58
2023/10/15 13:22:40;;;;;;;6.35;1.90;;;;;;;;;;4934610;29;20072;-59
2023/10/15 13:25:07;;;;;;;3.97;2.03;;;;;;;;;;4935665;29;20102;-61
2023/10/15 13:27:36;;;;;;;3.88;2.30;;;;;;;;;;4935167;29;20058;-59
2023/10/15 13:30:02;;;;;;;1.95;1.50;;;;;;;;;;4944757;29;20087;-62
2023/10/15 13:32:28;;;;;;;2.83;2.00;;;;;;;;;;4939438;29;20110;-61
2023/10/15 13:34:53;;;;;;;3.08;2.20;;;;;;;;;;4955550;29;20079;-58
2023/10/15 13:37:19;;;;;;;3.20;1.70;;;;;;;;;;4952826;29;20035;-60
2023/10/15 13:39:45;;;;;;;2.88;1.60;;;;;;;;;;4953765;29;20090;-60
2023/10/15 13:42:11;;;;;;;2.85;1.70;;;;;;;;;;4947504;29;20036;-59
2023/10/15 13:44:36;;;;;;;3.13;1.92;;;;;;;;;;4935826;29;20038;-60
2023/10/15 13:47:05;;;;;;;2.80;1.50;;;;;;;;;;4934326;29;20140;-62
2023/10/15 13:49:33;;;;;;;3.30;1.40;;;;;;;;;;4929219;29;20103;-61
2023/10/15 13:51:59;;;;;;;2.63;1.40;;;;;;;;;;4934547;29;20096;-61
2023/10/15 13:54:24;;;;;;;4.95;1.40;;;;;;;;;;4935310;29;20043;-61
2023/10/15 13:56:50;;;;;;;3.38;1.25;;;;;;;;;;4935751;29;20091;-61
2023/10/15 13:59:15;;;;;;;2.67;1.38;;;;;;;;;;4934734;29;20035;-61
2023/10/15 14:01:43;;;;;;;1.58;1.23;;;;;;;;;;4918905;29;20079;-61
2023/10/15 14:04:09;;;;;;;4.72;1.50;;;;;;;;;;4917119;29;20454;-61
2023/10/15 14:06:36;;;;;;;2.53;1.50;;;;;;;;;;4935303;29;20050;-61
2023/10/15 14:09:01;;;;;;;3.05;1.05;;;;;;;;;;4941586;29;20393;-61
2023/10/15 14:11:28;;;;;;;2.38;1.00;;;;;;;;;;4930673;29;20560;-61
2023/10/15 14:13:54;;;;;;;2.90;1.60;;;;;;;;;;4912493;29;20040;-58
2023/10/15 14:16:20;;;;;;;2.05;0.93;;;;;;;;;;4897147;29;20119;-59
2023/10/15 14:18:47;;;;;;;4.68;1.33;;;;;;;;;;4881068;29;20078;-59
2023/10/15 14:21:13;;;;;;;4.88;1.20;;;;;;;;;;4880055;29;20455;-61
2023/10/15 14:23:39;;;;;;;3.88;1.20;;;;;;;;;;4895692;29;20036;-61
2023/10/15 14:26:05;;;;;;;1.55;1.05;;;;;;;;;;4901378;29;20044;-61
2023/10/15 14:28:31;;;;;;;2.72;1.13;;;;;;;;;;4896761;29;20466;-61
2023/10/15 14:30:57;;;;;;;2.00;1.20;;;;;;;;;;4915350;29;20031;-59
2023/10/15 14:33:24;;;;;;;3.03;1.13;;;;;;;;;;4914795;29;20032;-60
2023/10/15 14:35:50;;;;;;;4.28;1.27;;;;;;;;;;4916126;29;20036;-59
2023/10/15 14:38:15;;;;;;;3.50;1.63;;;;;;;;;;4898339;29;20101;-61
2023/10/15 14:40:42;;;;;;;5.05;1.10;;;;;;;;;;4914983;29;20047;-61
2023/10/15 14:43:08;;;;;;;5.70;1.67;;;;;;;;;;4898173;29;20095;-61
2023/10/15 14:45:37;;;;;;;4.22;1.20;;;;;;;;;;4915157;29;20080;-59
2023/10/15 14:48:03;;;;;;;16.20;5.38;;;;;;;;;;4915110;29;20039;-62
2023/10/15 14:50:29;;;;;;;3.20;1.40;;;;;;;;;;4915167;29;20452;-61
2023/10/15 14:52:54;;;;;;;3.75;1.52;;;;;;;;;;4915464;29;20047;-61
2023/10/15 14:55:20;;;;;;;5.30;1.75;;;;;;;;;;4910544;29;20068;-61
2023/10/15 14:57:45;;;;;;;12.02;3.20;;;;;;;;;;4914729;29;20533;-61
2023/10/15 15:00:14;;;;;;;3.80;1.30;;;;;;;;;;4909969;29;20036;-61